createdAt,value
2022-12-09T00:00:07.899Z,1.47
2022-12-09T00:02:34.839Z,1.43
2022-12-09T00:05:04.881Z,1.43
2022-12-09T00:07:36.452Z,1.43
2022-12-09T00:10:04.629Z,1.42
2022-12-09T00:12:34.495Z,1.42
2022-12-09T00:15:01.915Z,1.43
2022-12-09T00:17:32.812Z,1.43
2022-12-09T00:19:59.713Z,1.41
2022-12-09T00:22:27.395Z,1.44
2022-12-09T00:24:54.296Z,1.43
2022-12-09T00:27:23.072Z,1.43
2022-12-09T00:29:49.558Z,1.44
2022-12-09T00:32:16.216Z,1.42
2022-12-09T00:34:43.028Z,1.43
2022-12-09T00:37:09.635Z,1.42
2022-12-09T00:39:36.174Z,1.40
2022-12-09T00:42:02.720Z,1.40
2022-12-09T00:44:29.619Z,1.43
2022-12-09T00:46:56.137Z,1.41
2022-12-09T00:49:22.811Z,1.42
2022-12-09T00:51:49.402Z,1.41
2022-12-09T00:54:16.166Z,1.38
2022-12-09T00:56:45.285Z,1.39
2022-12-09T00:59:12.153Z,1.41
2022-12-09T01:01:38.733Z,1.43
2022-12-09T01:04:08.721Z,1.44
2022-12-09T01:06:35.771Z,1.43
2022-12-09T01:09:03.332Z,1.45
2022-12-09T01:11:32.573Z,1.47
2022-12-09T01:14:04.171Z,1.48
2022-12-09T01:16:33.701Z,1.47
2022-12-09T01:19:05.987Z,1.45
2022-12-09T01:21:33.840Z,1.47
2022-12-09T01:24:00.735Z,1.46
2022-12-09T01:26:28.008Z,1.45
2022-12-09T01:28:57.510Z,1.45
2022-12-09T01:31:25.651Z,1.44
2022-12-09T01:33:54.094Z,1.44
2022-12-09T01:36:27.008Z,1.44
2022-12-09T01:38:54.781Z,1.40
2022-12-09T01:41:22.212Z,1.39
2022-12-09T01:44:27.917Z,1.38
2022-12-09T01:47:02.476Z,1.40
2022-12-09T01:49:34.946Z,1.39
2022-12-09T01:52:09.240Z,1.38
2022-12-09T01:54:37.027Z,1.39
2022-12-09T01:57:04.791Z,1.41
2022-12-09T01:59:32.024Z,1.42
2022-12-09T02:02:01.166Z,1.40
2022-12-09T02:04:32.085Z,1.41
2022-12-09T02:07:02.224Z,1.37
2022-12-09T02:09:29.235Z,1.36
2022-12-09T02:12:17.022Z,1.35
2022-12-09T02:14:56.749Z,1.37
2022-12-09T02:17:41.038Z,1.34
2022-12-09T02:20:37.339Z,1.37
2022-12-09T02:23:07.575Z,1.37
2022-12-09T02:25:43.899Z,1.36
2022-12-09T02:28:13.085Z,1.35
2022-12-09T02:31:06.046Z,1.31
2022-12-09T02:34:00.074Z,1.30
2022-12-09T02:36:30.968Z,1.30
2022-12-09T02:38:58.342Z,1.28
2022-12-09T02:41:28.777Z,1.26
2022-12-09T02:44:01.955Z,1.26
2022-12-09T02:46:29.431Z,1.24
2022-12-09T02:48:58.717Z,1.23
2022-12-09T02:51:30.853Z,1.22
2022-12-09T02:54:04.670Z,1.25
2022-12-09T02:56:32.384Z,1.21
2022-12-09T02:58:59.158Z,1.20
2022-12-09T03:01:40.218Z,1.21
2022-12-09T03:04:09.093Z,1.21
2022-12-09T03:06:50.518Z,1.18
2022-12-09T03:09:24.041Z,1.18
2022-12-09T03:11:51.944Z,1.24
2022-12-09T03:14:27.885Z,1.22
2022-12-09T03:17:06.467Z,1.18
2022-12-09T03:20:00.428Z,1.21
2022-12-09T03:22:34.484Z,1.21
2022-12-09T03:25:10.400Z,1.20
2022-12-09T03:28:16.540Z,1.14
2022-12-09T03:30:44.860Z,1.16
2022-12-09T03:33:14.779Z,1.16
2022-12-09T03:35:49.605Z,1.15
2022-12-09T03:38:18.550Z,1.16
2022-12-09T03:40:52.678Z,1.16
2022-12-09T03:43:24.486Z,1.16
2022-12-09T03:45:55.618Z,1.13
2022-12-09T03:48:24.193Z,1.12
2022-12-09T03:51:07.684Z,1.15
2022-12-09T03:53:49.787Z,1.18
2022-12-09T03:56:22.394Z,1.12
2022-12-09T03:58:54.431Z,1.11
2022-12-09T04:01:27.275Z,1.09
2022-12-09T04:04:00.761Z,1.11
2022-12-09T04:06:27.784Z,1.13
2022-12-09T04:08:59.345Z,1.13
2022-12-09T04:11:28.472Z,1.16
2022-12-09T04:13:54.914Z,1.15
2022-12-09T04:16:21.522Z,1.13
2022-12-09T04:18:48.361Z,1.14
2022-12-09T04:21:15.146Z,1.18
2022-12-09T04:23:43.385Z,1.20
2022-12-09T04:26:14.889Z,1.21
2022-12-09T04:28:41.956Z,1.19
2022-12-09T04:31:12.814Z,1.22
2022-12-09T04:33:40.450Z,1.22
2022-12-09T04:36:09.673Z,1.21
2022-12-09T04:38:36.284Z,1.20
2022-12-09T04:41:03.943Z,1.21
2022-12-09T04:43:31.471Z,1.21
2022-12-09T04:46:06.487Z,1.20
2022-12-09T04:48:33.702Z,1.19
2022-12-09T04:51:00.264Z,1.20
2022-12-09T04:53:27.465Z,1.21
2022-12-09T04:56:08.674Z,1.23
2022-12-09T04:58:35.543Z,1.24
2022-12-09T05:01:09.938Z,1.22
2022-12-09T05:03:37.698Z,1.21
2022-12-09T05:06:11.009Z,1.18
2022-12-09T05:08:38.053Z,1.18
2022-12-09T05:11:05.563Z,1.16
2022-12-09T05:13:33.292Z,1.17
2022-12-09T05:16:01.228Z,1.18
2022-12-09T05:18:29.120Z,1.16
2022-12-09T05:20:56.119Z,1.16
2022-12-09T05:23:22.779Z,1.16
2022-12-09T05:25:49.653Z,1.16
2022-12-09T05:28:16.647Z,1.13
2022-12-09T05:30:43.266Z,1.13
2022-12-09T05:33:10.208Z,1.13
2022-12-09T05:35:46.350Z,1.13
2022-12-09T05:38:18.983Z,1.13
2022-12-09T05:40:45.512Z,1.10
2022-12-09T05:43:12.105Z,1.09
2022-12-09T05:45:39.079Z,1.09
2022-12-09T05:48:05.946Z,1.09
2022-12-09T05:50:33.525Z,1.10
2022-12-09T05:53:00.319Z,1.06
2022-12-09T05:55:27.382Z,1.04
2022-12-09T05:57:55.108Z,1.05
2022-12-09T06:00:22.630Z,1.05
2022-12-09T06:02:49.560Z,1.05
2022-12-09T06:05:16.360Z,1.04
2022-12-09T06:07:43.183Z,1.03
2022-12-09T06:10:11.069Z,1.04
2022-12-09T06:12:38.528Z,1.06
2022-12-09T06:15:09.660Z,1.07
2022-12-09T06:17:37.330Z,1.06
2022-12-09T06:20:05.245Z,1.06
2022-12-09T06:22:32.198Z,1.05
2022-12-09T06:24:58.760Z,1.05
2022-12-09T06:27:25.799Z,1.03
2022-12-09T06:29:52.924Z,1.03
2022-12-09T06:32:19.779Z,1.06
2022-12-09T06:34:47.202Z,1.09
2022-12-09T06:37:15.479Z,1.09
2022-12-09T06:39:42.586Z,1.09
2022-12-09T06:42:09.560Z,1.11
2022-12-09T06:44:36.611Z,1.11
2022-12-09T06:47:03.462Z,1.12
2022-12-09T06:49:30.764Z,1.12
2022-12-09T06:51:57.649Z,1.12
2022-12-09T06:54:24.376Z,1.14
2022-12-09T06:56:51.020Z,1.13
2022-12-09T06:59:18.281Z,1.15
2022-12-09T07:01:45.781Z,1.15
2022-12-09T07:04:14.794Z,1.16
2022-12-09T07:06:43.720Z,1.18
2022-12-09T07:09:22.106Z,1.17
2022-12-09T07:11:49.657Z,1.17
2022-12-09T07:14:18.354Z,1.17
2022-12-09T07:16:46.801Z,1.15
2022-12-09T07:19:20.027Z,1.15
2022-12-09T07:21:47.796Z,1.13
2022-12-09T07:24:14.774Z,1.13
2022-12-09T07:26:41.437Z,1.12
2022-12-09T07:29:08.672Z,1.11
2022-12-09T07:31:35.733Z,1.12
2022-12-09T07:34:04.011Z,1.14
2022-12-09T07:36:32.353Z,1.15
2022-12-09T07:39:01.592Z,1.16
2022-12-09T07:41:28.988Z,1.18
2022-12-09T07:43:56.036Z,1.19
2022-12-09T07:46:23.678Z,1.19
2022-12-09T07:48:51.154Z,1.22
2022-12-09T07:51:18.017Z,1.23
2022-12-09T07:53:46.068Z,1.24
2022-12-09T07:56:14.833Z,1.26
2022-12-09T07:58:43.307Z,1.28
2022-12-09T08:01:16.116Z,1.30
2022-12-09T08:03:44.307Z,1.27
2022-12-09T08:06:16.143Z,1.24
2022-12-09T08:08:44.169Z,1.25
2022-12-09T08:11:19.812Z,1.31
2022-12-09T08:13:46.907Z,1.35
2022-12-09T08:16:15.072Z,1.36
2022-12-09T08:18:42.959Z,1.36
2022-12-09T08:21:13.209Z,1.35
2022-12-09T08:23:41.147Z,1.42
2022-12-09T08:26:09.050Z,1.42
2022-12-09T08:28:36.461Z,1.48
2022-12-09T08:31:10.713Z,1.50
2022-12-09T08:33:38.480Z,1.54
2022-12-09T08:36:10.917Z,1.58
2022-12-09T08:38:37.783Z,1.59
2022-12-09T08:41:17.591Z,1.60
2022-12-09T08:43:44.991Z,1.61
2022-12-09T08:46:12.909Z,1.64
2022-12-09T08:48:41.720Z,1.64
2022-12-09T08:51:10.528Z,1.64
2022-12-09T08:53:37.205Z,1.60
2022-12-09T08:56:12.003Z,1.61
2022-12-09T08:58:40.299Z,1.63
2022-12-09T09:01:08.092Z,1.66
2022-12-09T09:03:35.397Z,1.78
2022-12-09T09:06:09.718Z,1.80
2022-12-09T09:08:39.227Z,1.86
2022-12-09T09:11:20.612Z,1.90
2022-12-09T09:13:51.664Z,1.93
2022-12-09T09:16:23.845Z,2.00
2022-12-09T09:18:51.633Z,2.06
2022-12-09T09:21:21.063Z,2.14
2022-12-09T09:23:48.792Z,2.14
2022-12-09T09:26:18.083Z,2.22
2022-12-09T09:28:45.913Z,2.40
2022-12-09T09:31:18.389Z,2.99
2022-12-09T09:33:46.120Z,3.37
2022-12-09T09:36:21.857Z,3.75
2022-12-09T09:38:49.978Z,3.95
2022-12-09T09:41:44.527Z,3.91
2022-12-09T09:44:23.257Z,3.77
2022-12-09T09:46:52.491Z,3.66
2022-12-09T09:49:35.423Z,3.61
2022-12-09T09:52:10.297Z,3.52
2022-12-09T09:54:37.882Z,3.39
2022-12-09T09:57:15.687Z,3.39
2022-12-09T09:59:49.368Z,3.38
2022-12-09T10:02:52.473Z,3.41
2022-12-09T10:05:29.210Z,3.45
2022-12-09T10:08:17.350Z,3.49
2022-12-09T10:11:05.943Z,3.58
2022-12-09T10:13:48.475Z,3.51
2022-12-09T10:16:21.956Z,3.47
2022-12-09T10:19:05.941Z,3.45
2022-12-09T10:21:40.261Z,3.52
2022-12-09T10:24:26.218Z,3.53
2022-12-09T10:27:14.661Z,3.56
2022-12-09T10:29:41.498Z,3.55
2022-12-09T10:32:17.071Z,3.51
2022-12-09T10:34:44.298Z,3.50
2022-12-09T10:37:29.143Z,3.32
2022-12-09T10:40:16.516Z,3.38
2022-12-09T10:43:11.050Z,3.31
2022-12-09T10:48:38.046Z,3.36
2022-12-09T10:51:12.472Z,3.31
2022-12-09T10:53:48.744Z,3.28
2022-12-09T10:56:22.682Z,3.32
2022-12-09T10:58:49.477Z,3.14
2022-12-09T11:01:16.721Z,3.01
2022-12-09T11:03:53.972Z,2.97
2022-12-09T11:06:33.344Z,2.96
2022-12-09T11:09:02.397Z,2.93
2022-12-09T11:11:45.408Z,2.87
2022-12-09T11:14:24.020Z,2.87
2022-12-09T11:16:57.248Z,2.85
2022-12-09T11:19:34.134Z,2.77
2022-12-09T11:22:19.841Z,2.70
2022-12-09T11:24:46.790Z,2.62
2022-12-09T11:27:28.198Z,2.57
2022-12-09T11:30:27.102Z,2.53
2022-12-09T11:32:59.620Z,2.44
2022-12-09T11:35:34.860Z,2.35
2022-12-09T11:38:35.816Z,2.38
2022-12-09T11:41:05.066Z,2.35
2022-12-09T11:43:35.966Z,2.23
2022-12-09T11:46:14.817Z,2.17
2022-12-09T11:49:04.217Z,2.14
2022-12-09T11:51:35.950Z,2.10
2022-12-09T11:54:11.295Z,2.08
2022-12-09T11:56:40.748Z,2.08
2022-12-09T11:59:24.044Z,2.10
2022-12-09T12:01:54.127Z,2.05
2022-12-09T12:04:32.489Z,2.10
2022-12-09T12:07:07.157Z,2.10
2022-12-09T12:09:45.059Z,2.16
2022-12-09T12:12:25.235Z,2.24
2022-12-09T12:14:51.776Z,2.30
2022-12-09T12:17:25.869Z,2.36
2022-12-09T12:19:53.771Z,2.37
2022-12-09T12:22:36.782Z,2.38
2022-12-09T12:25:21.470Z,2.35
2022-12-09T12:28:09.913Z,2.32
2022-12-09T12:30:59.076Z,2.41
2022-12-09T12:34:07.871Z,2.35
2022-12-09T12:36:40.379Z,2.35
2022-12-09T12:39:25.540Z,2.38
2022-12-09T12:42:20.125Z,2.41
2022-12-09T12:45:27.235Z,2.36
2022-12-09T12:48:09.747Z,2.38
2022-12-09T12:50:55.829Z,2.38
2022-12-09T12:53:39.979Z,2.38
2022-12-09T12:56:16.603Z,2.41
2022-12-09T12:58:45.956Z,2.35
2022-12-09T13:01:15.417Z,2.35
2022-12-09T13:03:51.393Z,2.32
2022-12-09T13:06:22.199Z,2.32
2022-12-09T13:08:59.759Z,2.32
2022-12-09T13:11:46.245Z,2.28
2022-12-09T13:14:20.587Z,2.24
2022-12-09T13:16:48.463Z,2.23
2022-12-09T13:19:26.907Z,2.19
2022-12-09T13:21:53.395Z,2.13
2022-12-09T13:24:48.870Z,2.13
2022-12-09T13:27:35.708Z,2.12
2022-12-09T13:30:07.003Z,2.07
2022-12-09T13:33:05.714Z,2.03
2022-12-09T13:35:39.116Z,2.01
2022-12-09T13:38:24.783Z,2.01
2022-12-09T13:40:51.441Z,1.99
2022-12-09T13:43:27.150Z,2.00
2022-12-09T13:46:00.006Z,2.05
2022-12-09T13:48:29.561Z,2.03
2022-12-09T13:50:59.569Z,2.09
2022-12-09T13:53:50.504Z,2.05
2022-12-09T13:56:17.090Z,2.05
2022-12-09T13:59:12.942Z,2.00
2022-12-09T14:01:52.803Z,1.98
2022-12-09T14:04:37.055Z,1.94
2022-12-09T14:07:30.568Z,1.93
2022-12-09T14:09:58.899Z,1.82
2022-12-09T14:12:25.309Z,1.78
2022-12-09T14:14:54.047Z,1.68
2022-12-09T14:17:26.953Z,1.66
2022-12-09T14:20:15.072Z,1.57
2022-12-09T14:22:41.920Z,1.50
2022-12-09T14:25:27.544Z,1.43
2022-12-09T14:28:12.261Z,1.42
2022-12-09T14:31:03.409Z,1.33
2022-12-09T14:33:36.155Z,1.28
2022-12-09T14:36:14.914Z,1.17
2022-12-09T14:39:24.220Z,1.12
2022-12-09T14:42:18.969Z,1.10
2022-12-09T14:44:48.459Z,1.04
2022-12-09T14:47:38.296Z,1.00
2022-12-09T14:50:14.475Z,0.95
2022-12-09T14:52:54.734Z,0.90
2022-12-09T14:55:23.829Z,0.87
2022-12-09T14:57:51.978Z,0.92
2022-12-09T15:00:40.863Z,0.83
2022-12-09T15:03:42.896Z,0.87
2022-12-09T15:06:12.224Z,0.79
2022-12-09T15:08:41.225Z,0.75
2022-12-09T15:11:17.016Z,0.68
2022-12-09T15:13:46.607Z,0.63
2022-12-09T15:16:17.272Z,0.61
2022-12-09T15:18:45.662Z,0.58
2022-12-09T15:21:25.670Z,0.62
2022-12-09T15:23:52.391Z,0.58
2022-12-09T15:26:21.046Z,0.55
2022-12-09T15:28:50.092Z,0.57
2022-12-09T15:31:20.183Z,0.59
2022-12-09T15:33:49.632Z,0.59
2022-12-09T15:36:22.302Z,0.59
2022-12-09T15:38:58.610Z,0.58
2022-12-09T15:41:51.230Z,0.55
2022-12-09T15:44:21.193Z,0.57
2022-12-09T15:46:50.961Z,0.58
2022-12-09T15:49:24.985Z,0.59
2022-12-09T15:51:54.861Z,0.60
2022-12-09T15:54:26.843Z,0.66
2022-12-09T15:56:57.916Z,0.68
2022-12-09T15:59:56.671Z,0.73
2022-12-09T16:02:27.757Z,0.73
2022-12-09T16:04:57.739Z,0.72
2022-12-09T16:07:26.890Z,0.72
2022-12-09T16:10:22.828Z,0.71
2022-12-09T16:13:04.733Z,0.73
2022-12-09T16:15:52.831Z,0.77
2022-12-09T16:18:33.465Z,0.78
2022-12-09T16:21:21.015Z,0.87
2022-12-09T16:23:52.823Z,0.83
2022-12-09T16:26:35.428Z,0.86
2022-12-09T16:29:05.957Z,0.85
2022-12-09T16:31:32.626Z,0.86
2022-12-09T16:33:59.654Z,0.87
2022-12-09T16:36:27.597Z,0.93
2022-12-09T16:39:23.398Z,0.99
2022-12-09T16:41:52.532Z,1.02
2022-12-09T16:44:22.258Z,1.07
2022-12-09T16:46:48.891Z,1.02
2022-12-09T16:49:15.481Z,1.14
2022-12-09T16:51:42.083Z,1.06
2022-12-09T16:54:19.649Z,1.07
2022-12-09T16:56:46.896Z,1.04
2022-12-09T16:59:13.360Z,1.02
2022-12-09T17:01:42.126Z,0.98
2022-12-09T17:04:17.661Z,0.96
2022-12-09T17:06:44.361Z,1.00
2022-12-09T17:09:11.931Z,0.96
2022-12-09T17:11:38.693Z,1.00
2022-12-09T17:14:05.280Z,1.09
2022-12-09T17:16:33.802Z,1.06
2022-12-09T17:19:05.517Z,1.05
2022-12-09T17:21:32.309Z,1.03
2022-12-09T17:23:58.896Z,1.05
2022-12-09T17:26:25.492Z,1.08
2022-12-09T17:28:56.818Z,1.04
2022-12-09T17:31:28.065Z,1.01
2022-12-09T17:33:56.967Z,0.97
2022-12-09T17:36:23.972Z,1.00
2022-12-09T17:38:50.401Z,1.04
2022-12-09T17:41:20.622Z,1.02
2022-12-09T17:43:47.649Z,0.99
2022-12-09T17:46:14.199Z,0.98
2022-12-09T17:48:41.839Z,0.89
2022-12-09T17:51:11.060Z,0.84
2022-12-09T17:53:38.835Z,0.83
2022-12-09T17:56:07.702Z,0.80
2022-12-09T17:58:34.256Z,0.79
2022-12-09T18:01:01.053Z,0.78
2022-12-09T18:03:54.488Z,0.66
2022-12-09T18:06:16.377Z,0.62
2022-12-09T18:08:43.136Z,0.64
2022-12-09T18:11:10.857Z,0.66
2022-12-09T18:13:37.835Z,0.56
2022-12-09T18:16:11.226Z,0.52
2022-12-09T18:18:39.393Z,0.51
2022-12-09T18:21:13.673Z,0.48
2022-12-09T18:23:42.246Z,0.43
2022-12-09T18:26:10.620Z,0.42
2022-12-09T18:28:38.896Z,0.44
2022-12-09T18:31:10.605Z,0.34
2022-12-09T18:33:38.646Z,0.34
2022-12-09T18:36:07.062Z,0.41
2022-12-09T18:38:33.613Z,0.39
2022-12-09T18:41:03.385Z,0.35
2022-12-09T18:43:41.757Z,0.27
2022-12-09T18:46:12.272Z,0.26
2022-12-09T18:48:39.663Z,0.19
2022-12-09T18:51:10.088Z,0.18
2022-12-09T18:53:36.622Z,0.23
2022-12-09T18:56:05.083Z,0.21
2022-12-09T18:59:04.080Z,0.27
2022-12-09T19:01:18.042Z,0.29
2022-12-09T19:03:45.046Z,0.26
2022-12-09T19:06:22.334Z,0.25
2022-12-09T19:08:53.698Z,0.24
2022-12-09T19:11:21.883Z,0.25
2022-12-09T19:13:48.955Z,0.28
2022-12-09T19:16:16.063Z,0.36
2022-12-09T19:18:42.678Z,0.37
2022-12-09T19:21:11.425Z,0.39
2022-12-09T19:23:39.670Z,0.38
2022-12-09T19:26:13.956Z,0.45
2022-12-09T19:28:47.180Z,0.45
2022-12-09T19:31:24.980Z,0.46
2022-12-09T19:33:59.964Z,0.50
2022-12-09T19:36:29.173Z,0.49
2022-12-09T19:38:57.253Z,0.51
2022-12-09T19:41:24.024Z,0.45
2022-12-09T19:43:58.185Z,0.46
2022-12-09T19:46:26.632Z,0.46
2022-12-09T19:48:53.594Z,0.44
2022-12-09T19:51:21.771Z,0.46
2022-12-09T19:53:48.738Z,0.44
2022-12-09T19:56:16.515Z,0.42
2022-12-09T19:58:43.986Z,0.46
2022-12-09T20:01:16.808Z,0.47
2022-12-09T20:03:45.468Z,0.46
2022-12-09T20:06:16.128Z,0.49
2022-12-09T20:08:43.541Z,0.51
2022-12-09T20:11:13.943Z,0.46
2022-12-09T20:13:40.543Z,0.48
2022-12-09T20:16:09.771Z,0.46
2022-12-09T20:18:36.970Z,0.47
2022-12-09T20:21:05.101Z,0.44
2022-12-09T20:23:31.690Z,0.42
2022-12-09T20:26:09.455Z,0.48
2022-12-09T20:28:37.714Z,0.50
2022-12-09T20:31:15.878Z,0.50
2022-12-09T20:33:42.821Z,0.45
2022-12-09T20:36:12.572Z,0.48
2022-12-09T20:38:39.813Z,0.44
2022-12-09T20:41:12.678Z,0.46
2022-12-09T20:43:42.173Z,0.45
2022-12-09T20:46:11.657Z,0.51
2022-12-09T20:48:39.549Z,0.58
2022-12-09T20:51:13.211Z,0.52
2022-12-09T20:53:41.397Z,0.49
2022-12-09T20:56:09.049Z,0.48
2022-12-09T20:58:36.856Z,0.44
2022-12-09T21:01:16.161Z,0.42
2022-12-09T21:03:43.932Z,0.41
2022-12-09T21:06:13.176Z,0.42
2022-12-09T21:08:39.686Z,0.45
2022-12-09T21:11:17.247Z,0.40
2022-12-09T21:13:46.836Z,0.45
2022-12-09T21:16:22.255Z,0.39
2022-12-09T21:18:50.702Z,0.43
2022-12-09T21:21:18.741Z,0.39
2022-12-09T21:23:45.681Z,0.40
2022-12-09T21:26:15.491Z,0.41
2022-12-09T21:28:43.359Z,0.38
2022-12-09T21:31:31.445Z,0.37
2022-12-09T21:34:01.697Z,0.43
2022-12-09T21:36:33.129Z,0.45
2022-12-09T21:39:00.368Z,0.47
2022-12-09T21:41:29.860Z,0.44
2022-12-09T21:43:56.487Z,0.48
2022-12-09T21:46:25.585Z,0.43
2022-12-09T21:48:56.067Z,0.40
2022-12-09T21:51:27.331Z,0.39
2022-12-09T21:53:55.034Z,0.39
2022-12-09T21:56:24.514Z,0.37
2022-12-09T21:58:53.379Z,0.37
2022-12-09T22:01:22.788Z,0.36
2022-12-09T22:03:49.857Z,0.34
2022-12-09T22:06:17.598Z,0.30
2022-12-09T22:08:45.103Z,0.29
2022-12-09T22:11:18.167Z,0.38
2022-12-09T22:13:45.009Z,0.42
2022-12-09T22:16:15.663Z,0.40
2022-12-09T22:18:42.463Z,0.33
2022-12-09T22:21:29.276Z,0.39
2022-12-09T22:23:59.301Z,0.33
2022-12-09T22:26:27.100Z,0.38
2022-12-09T22:28:56.900Z,0.36
2022-12-09T22:31:26.170Z,0.38
2022-12-09T22:34:00.905Z,0.42
2022-12-09T22:36:28.159Z,0.42
2022-12-09T22:38:55.404Z,0.34
2022-12-09T22:41:25.654Z,0.36
2022-12-09T22:43:54.501Z,0.32
2022-12-09T22:46:26.743Z,0.36
2022-12-09T22:48:54.249Z,0.34
2022-12-09T22:51:23.638Z,0.28
2022-12-09T22:53:51.762Z,0.30
2022-12-09T22:56:19.376Z,0.29
2022-12-09T22:58:46.510Z,0.38
2022-12-09T23:01:24.761Z,0.34
2022-12-09T23:03:52.033Z,0.35
2022-12-09T23:06:18.516Z,0.29
2022-12-09T23:08:45.752Z,0.33
2022-12-09T23:11:15.628Z,0.34
2022-12-09T23:13:43.044Z,0.32
2022-12-09T23:16:13.489Z,0.27
2022-12-09T23:18:40.521Z,0.22
2022-12-09T23:21:08.800Z,0.22
2022-12-09T23:23:35.335Z,0.28
2022-12-09T23:26:07.975Z,0.23
2022-12-09T23:28:38.653Z,0.21
2022-12-09T23:31:07.178Z,0.17
2022-12-09T23:33:34.417Z,0.17
2022-12-09T23:36:09.699Z,0.20
2022-12-09T23:38:36.953Z,0.13
2022-12-09T23:41:04.237Z,0.16
2022-12-09T23:43:31.829Z,0.12
2022-12-09T23:46:02.582Z,0.14
2022-12-09T23:48:29.467Z,0.17
2022-12-09T23:50:56.430Z,0.14
2022-12-09T23:53:23.265Z,0.08
2022-12-09T23:55:50.022Z,0.09
2022-12-09T23:58:16.780Z,0.08
